Shimanami Star — C6VN9 — position and weather

sailwx.info

Track history (hours):
 
Tides and Currents Weather Stations Pressure Air Temp Water Temp Dewpoint Dewpoint Depression Visibility Wind Speed Wind Dir Waves Ship Positions

Shimanami Star

Last reported at 2014-Aug-01 11:33 UTC. Time now 2014-Aug-22 13:46 UTC.
Position N 31°02' E 122°53'.
Warning: this ship's position is 21 days out of date.

Length 170 m; draft 5.4 m.

Type: Cargo ship. MMSI: 309116000.

Date/timePositionNaut miles runAvg speedWind from/ knotsBaromVisibWave heightAir tempDewpointWater temp
2014-Aug-01 11:33N 31°02' E 122°53'3 2.7
2014-Aug-01 10:25N 30°60' E 122°50'3 0.2
2014-Jul-31 18:31N 31°03' E 122°51'2 0.6
2014-Jul-31 15:13N 31°03' E 122°48'0 0.1
2014-Jul-31 14:33N 31°03' E 122°48'2 0.8
2014-Jul-31 12:32N 31°02' E 122°49'1 0.5
2014-Jul-31 11:30N 31°02' E 122°49'1 0.8
2014-Jul-31 10:04N 31°03' E 122°50'1 0.8
2014-Jul-31 09:11N 31°03' E 122°50'13 0.9
2014-Jul-30 18:32N 30°58' E 122°37'1212.2
2014-Jul-30 17:33N 31°01' E 122°23'12 9.5
2014-Jul-30 16:15N 31°03' E 122°09'21 9.6
2014-Jul-30 14:05N 31°14' E 121°48'713.4
2014-Jul-30 13:33N 31°19' E 121°42'1111.5
2014-Jul-30 12:33N 31°25' E 121°31'7 7.0
2014-Jul-30 11:33N 31°30' E 121°25'1312.4
2014-Jul-30 10:32N 31°38' E 121°14'1414.3
2014-Jul-30 09:33N 31°47' E 121°01'1211.6
2014-Jul-30 08:33N 31°56' E 120°52'8 7.2
2014-Jul-30 07:27N 32°00' E 120°45'0 0.1
2014-Jul-30 06:33N 32°00' E 120°45'0 0.1
2014-Jul-30 05:33N 32°00' E 120°45'0 0.0
2014-Jul-30 04:24N 32°00' E 120°45'0 0.0
2014-Jul-30 03:30N 32°00' E 120°45'0 0.0
2014-Jul-30 02:30N 32°00' E 120°45'0 0.0
2014-Jul-30 01:33N 32°00' E 120°45'0 0.0
2014-Jul-30 00:30N 32°00' E 120°45'0 0.0
2014-Jul-29 23:33N 32°00' E 120°45'0 0.1
2014-Jul-29 22:28N 32°00' E 120°45'0 0.1
2014-Jul-29 21:33N 32°00' E 120°45'0 0.1
2014-Jul-29 20:27N 32°00' E 120°44'0 0.0
2014-Jul-29 19:30N 32°00' E 120°44'0 0.1
2014-Jul-29 18:33N 32°00' E 120°45'0 0.1
2014-Jul-29 17:33N 32°00' E 120°45'0 0.1
2014-Jul-29 16:33N 32°00' E 120°45'0 0.0
2014-Jul-29 15:30N 32°00' E 120°45'0 0.0
2014-Jul-29 14:33N 32°00' E 120°45'0 0.0
2014-Jul-29 13:28N 32°00' E 120°45'0 0.0
2014-Jul-29 12:34N 32°00' E 120°45'0 0.0
2014-Jul-29 11:30N 32°00' E 120°45'0 0.0
2014-Jul-29 10:33N 32°00' E 120°45'0 0.1
2014-Jul-29 09:30N 32°00' E 120°45'0 0.1
2014-Jul-29 08:33N 32°00' E 120°45'0 0.1
2014-Jul-29 07:33N 32°00' E 120°45'0 0.1
2014-Jul-29 06:33N 32°00' E 120°45'0 0.1
2014-Jul-29 05:33N 32°00' E 120°45'0 0.0
2014-Jul-29 04:30N 32°00' E 120°45'0 0.0
2014-Jul-29 03:33N 32°00' E 120°45'0 0.1
2014-Jul-29 02:33N 32°00' E 120°45'1010.3
2014-Jul-29 01:33N 32°03' E 120°33'1010.0
2014-Jul-29 00:34N 32°01' E 120°22'0 0.0
2014-Jul-28 23:32N 32°01' E 120°22'0 0.0
2014-Jul-28 22:32N 32°01' E 120°22'0 0.0
2014-Jul-28 21:32N 32°01' E 120°22'0 0.0
2014-Jul-28 20:32N 32°01' E 120°22'0 0.0
2014-Jul-28 19:32N 32°01' E 120°22'0 0.0
2014-Jul-28 18:32N 32°01' E 120°22'0 0.0
2014-Jul-28 17:32N 32°01' E 120°22'0 0.0
2014-Jul-28 16:32N 32°01' E 120°22'0 0.0
2014-Jul-28 15:32N 32°01' E 120°22'0 0.0
2014-Jul-28 14:32N 32°01' E 120°22'0 0.0
2014-Jul-28 13:32N 32°01' E 120°22'0 0.0
2014-Jul-28 12:32N 32°01' E 120°22'0 0.0
2014-Jul-28 11:32N 32°01' E 120°22'0 0.0
2014-Jul-28 10:32N 32°01' E 120°22'0 0.0
2014-Jul-28 09:29N 32°01' E 120°22'0 0.0
2014-Jul-28 08:32N 32°01' E 120°22'0 0.0
2014-Jul-28 07:32N 32°01' E 120°22'0 0.0
2014-Jul-28 06:32N 32°01' E 120°22'0 0.0
2014-Jul-28 05:32N 32°01' E 120°22'0 0.0
2014-Jul-28 04:32N 32°01' E 120°22'0 0.0
2014-Jul-28 03:32N 32°01' E 120°22'0 0.0
2014-Jul-28 02:26N 32°01' E 120°22'0 0.0
2014-Jul-28 01:32N 32°01' E 120°22'0 0.0
2014-Jul-28 00:32N 32°01' E 120°22'0 0.0
2014-Jul-27 23:32N 32°01' E 120°22'0 0.0
2014-Jul-27 22:32N 32°01' E 120°22'0 0.0
2014-Jul-27 21:32N 32°01' E 120°22'0 0.0
2014-Jul-27 20:32N 32°01' E 120°22'0 0.0
2014-Jul-27 19:32N 32°01' E 120°22'0 0.0
2014-Jul-27 18:32N 32°01' E 120°22'0 0.0
2014-Jul-27 17:32N 32°01' E 120°22'0 0.0
2014-Jul-27 16:32N 32°01' E 120°22'0 0.0
2014-Jul-27 15:32N 32°01' E 120°22'0 0.0
2014-Jul-27 14:32N 32°01' E 120°22'0 0.0
2014-Jul-27 13:32N 32°01' E 120°22'0 0.0
2014-Jul-27 12:32N 32°01' E 120°22'0 0.0
2014-Jul-27 11:32N 32°01' E 120°22'0 0.0
2014-Jul-27 10:32N 32°01' E 120°22'0 0.0
2014-Jul-27 09:32N 32°01' E 120°22'0 0.0
2014-Jul-27 08:32N 32°01' E 120°22'0 0.0
2014-Jul-27 07:32N 32°01' E 120°22'0 0.0
2014-Jul-27 06:32N 32°01' E 120°22'0 0.0
2014-Jul-27 05:32N 32°01' E 120°22'0 0.0
2014-Jul-27 04:32N 32°01' E 120°22'0 0.0
2014-Jul-27 03:32N 32°01' E 120°22'0 0.0
2014-Jul-27 02:29N 32°01' E 120°22'0 0.0
2014-Jul-27 01:32N 32°01' E 120°22'0 0.0
2014-Jul-27 00:32N 32°01' E 120°22'0 0.0
2014-Jul-26 23:32N 32°01' E 120°22'0 0.0
2014-Jul-26 22:32N 32°01' E 120°22'0 0.0
2014-Jul-26 21:32N 32°01' E 120°22'0 0.0
2014-Jul-26 20:32N 32°01' E 120°22'0 0.0
2014-Jul-26 19:32N 32°01' E 120°22'0 0.0
2014-Jul-26 18:32N 32°01' E 120°22'0 0.0
2014-Jul-26 17:32N 32°01' E 120°22'0 0.0
2014-Jul-26 16:32N 32°01' E 120°22'0 0.0
2014-Jul-26 15:32N 32°01' E 120°22'0 0.0
2014-Jul-26 14:32N 32°01' E 120°22'0 0.0
2014-Jul-26 13:32N 32°01' E 120°22'0 0.0
2014-Jul-26 12:29N 32°01' E 120°22'0 0.0
2014-Jul-26 11:32N 32°01' E 120°22'0 0.0
2014-Jul-26 10:32N 32°01' E 120°22'0 0.0
2014-Jul-26 09:32N 32°01' E 120°22'0 0.1
2014-Jul-26 08:32N 32°01' E 120°22'0 0.0
2014-Jul-26 07:26N 32°01' E 120°22'0 0.0
2014-Jul-26 06:20N 32°01' E 120°22'0 0.0
2014-Jul-26 05:32N 32°01' E 120°22'0 0.0
2014-Jul-26 04:32N 32°01' E 120°22'0 0.0
2014-Jul-26 03:32N 32°01' E 120°22'0 0.1
2014-Jul-26 02:32N 32°01' E 120°22'0 0.1
2014-Jul-26 01:32N 32°01' E 120°22'0 0.0
2014-Jul-26 00:32N 32°01' E 120°22'0 0.0
2014-Jul-25 23:32N 32°01' E 120°22'0 0.0
2014-Jul-25 22:32N 32°01' E 120°22'0 0.0
2014-Jul-25 21:32N 32°01' E 120°22'0 0.0
2014-Jul-25 20:32N 32°01' E 120°22'0 0.0
2014-Jul-25 19:32N 32°01' E 120°22'0 0.0
2014-Jul-25 18:32N 32°01' E 120°22'0 0.0
2014-Jul-25 17:32N 32°01' E 120°22'0 0.0
2014-Jul-25 16:32N 32°01' E 120°22'0 0.0
2014-Jul-25 15:26N 32°01' E 120°22'0 0.1
2014-Jul-25 14:32N 32°01' E 120°22'0 0.1
2014-Jul-25 13:32N 32°01' E 120°22'0 0.0
2014-Jul-25 12:32N 32°01' E 120°22'0 0.0
2014-Jul-25 11:32N 32°01' E 120°22'0 0.0
2014-Jul-25 10:32N 32°01' E 120°22'0 0.0
2014-Jul-25 09:32N 32°01' E 120°22'0 0.0
2014-Jul-25 08:32N 32°01' E 120°22'0 0.0
2014-Jul-25 07:32N 32°01' E 120°22'0 0.0
2014-Jul-25 06:32N 32°01' E 120°22'0 0.0
2014-Jul-25 05:32N 32°01' E 120°22'0 0.0
2014-Jul-25 04:32N 32°01' E 120°22'0 0.0
2014-Jul-25 03:32N 32°01' E 120°22'0 0.1
2014-Jul-25 02:32N 32°01' E 120°22'0 0.1
2014-Jul-25 01:32N 32°01' E 120°22'0 0.0
2014-Jul-25 00:32N 32°01' E 120°22'0 0.0
2014-Jul-24 23:32N 32°01' E 120°22'0 0.0
2014-Jul-24 22:32N 32°01' E 120°22'0 0.0
2014-Jul-24 21:32N 32°01' E 120°22'0 0.0
2014-Jul-24 20:32N 32°01' E 120°22'0 0.0
2014-Jul-24 19:32N 32°01' E 120°22'0 0.0
2014-Jul-24 18:32N 32°01' E 120°22'0 0.0
2014-Jul-24 17:32N 32°01' E 120°22'0 0.0
2014-Jul-24 16:32N 32°01' E 120°22'0 0.0
2014-Jul-24 15:32N 32°01' E 120°22'0 0.0
2014-Jul-24 14:32N 32°01' E 120°22'0 0.0
2014-Jul-24 13:32N 32°01' E 120°22'0 0.0
2014-Jul-24 12:32N 32°01' E 120°22'0 0.0
2014-Jul-24 11:32N 32°01' E 120°22'0 0.0
2014-Jul-24 10:32N 32°01' E 120°22'0 0.0
2014-Jul-24 09:26N 32°01' E 120°22'0 0.0
2014-Jul-24 08:32N 32°01' E 120°22'0 0.0
2014-Jul-24 07:32N 32°01' E 120°22'0 0.0
2014-Jul-24 06:32N 32°01' E 120°22'0 0.0
2014-Jul-24 05:29N 32°01' E 120°22'0 0.0
2014-Jul-24 04:32N 32°01' E 120°22'0 0.1
2014-Jul-24 03:32N 32°01' E 120°22'0 0.0
2014-Jul-24 02:32N 32°01' E 120°22'0 0.0
2014-Jul-24 01:32N 32°01' E 120°22'0 0.1
2014-Jul-24 00:32N 32°01' E 120°22'0 0.0
2014-Jul-23 23:32N 32°01' E 120°22'0 0.1
2014-Jul-23 22:32N 32°01' E 120°22'0 0.0
2014-Jul-23 21:32N 32°01' E 120°22'0 0.1
2014-Jul-23 20:32N 32°01' E 120°22'0 0.0
2014-Jul-23 19:32N 32°01' E 120°22'0 0.1
2014-Jul-23 18:32N 32°01' E 120°22'0 0.1
2014-Jul-23 17:32N 32°01' E 120°22'0 0.1
2014-Jul-23 16:32N 32°01' E 120°22'0 0.1
2014-Jul-23 15:32N 32°01' E 120°22'0 0.0
2014-Jul-23 14:32N 32°01' E 120°22'0 0.0
2014-Jul-23 13:32N 32°01' E 120°22'0 0.0
2014-Jul-23 12:29N 32°01' E 120°22'0 0.0
2014-Jul-23 11:32N 32°01' E 120°22'0 0.0
2014-Jul-23 10:32N 32°01' E 120°22'0 0.0
2014-Jul-23 09:32N 32°01' E 120°22'0 0.0
2014-Jul-23 08:32N 32°01' E 120°22'0 0.0
2014-Jul-23 07:32N 32°01' E 120°22'0 0.0
2014-Jul-23 06:32N 32°01' E 120°22'0 0.0
2014-Jul-23 05:32N 32°01' E 120°22'0 0.0
2014-Jul-23 04:32N 32°01' E 120°22'0 0.0
2014-Jul-23 03:29N 32°01' E 120°22'0 0.1
2014-Jul-23 02:32N 32°01' E 120°22'0 0.0
2014-Jul-23 01:32N 32°01' E 120°22'0 0.1
2014-Jul-23 00:32N 32°01' E 120°22'0 0.0
2014-Jul-22 23:32N 32°01' E 120°22'0 0.0
2014-Jul-22 22:32N 32°01' E 120°22'0 0.0
2014-Jul-22 21:32N 32°01' E 120°22'0 0.0
2014-Jul-22 20:32N 32°01' E 120°22'0 0.0
2014-Jul-22 19:32N 32°01' E 120°22'0 0.0
2014-Jul-22 18:32N 32°01' E 120°22'0 0.1
2014-Jul-22 17:32N 32°01' E 120°22'0 0.1
2014-Jul-22 16:32N 32°01' E 120°22'0 0.0
2014-Jul-22 15:32N 32°01' E 120°22'0 0.0
2014-Jul-22 14:32N 32°01' E 120°22'0 0.0
2014-Jul-22 13:32N 32°01' E 120°22'0 0.0
2014-Jul-22 12:32N 32°01' E 120°22'  
Track history (hours):
 
Tides and Currents Weather Stations Pressure Air Temp Water Temp Dewpoint Dewpoint Depression Visibility Wind Speed Wind Dir Waves Ship Positions

Shimanami Star

Last reported at 2014-Aug-01 11:33 UTC. Time now 2014-Aug-22 13:46 UTC.
Position N 31°02' E 122°53'.
Warning: this ship's position is 21 days out of date.

Length 170 m; draft 5.4 m.

Type: Cargo ship. MMSI: 309116000.

Date/timePositionNaut miles runAvg speedWind from/ knotsBaromVisibWave heightAir tempDewpointWater temp
2014-Aug-01 11:33N 31°02' E 122°53'3 2.7
2014-Aug-01 10:25N 30°60' E 122°50'3 0.2
2014-Jul-31 18:31N 31°03' E 122°51'2 0.6
2014-Jul-31 15:13N 31°03' E 122°48'0 0.1
2014-Jul-31 14:33N 31°03' E 122°48'2 0.8
2014-Jul-31 12:32N 31°02' E 122°49'1 0.5
2014-Jul-31 11:30N 31°02' E 122°49'1 0.8
2014-Jul-31 10:04N 31°03' E 122°50'1 0.8
2014-Jul-31 09:11N 31°03' E 122°50'13 0.9
2014-Jul-30 18:32N 30°58' E 122°37'1212.2
2014-Jul-30 17:33N 31°01' E 122°23'12 9.5
2014-Jul-30 16:15N 31°03' E 122°09'21 9.6
2014-Jul-30 14:05N 31°14' E 121°48'713.4
2014-Jul-30 13:33N 31°19' E 121°42'1111.5
2014-Jul-30 12:33N 31°25' E 121°31'7 7.0
2014-Jul-30 11:33N 31°30' E 121°25'1312.4
2014-Jul-30 10:32N 31°38' E 121°14'1414.3
2014-Jul-30 09:33N 31°47' E 121°01'1211.6
2014-Jul-30 08:33N 31°56' E 120°52'8 7.2
2014-Jul-30 07:27N 32°00' E 120°45'0 0.1
2014-Jul-30 06:33N 32°00' E 120°45'0 0.1
2014-Jul-30 05:33N 32°00' E 120°45'0 0.0
2014-Jul-30 04:24N 32°00' E 120°45'0 0.0
2014-Jul-30 03:30N 32°00' E 120°45'0 0.0
2014-Jul-30 02:30N 32°00' E 120°45'0 0.0
2014-Jul-30 01:33N 32°00' E 120°45'0 0.0
2014-Jul-30 00:30N 32°00' E 120°45'0 0.0
2014-Jul-29 23:33N 32°00' E 120°45'0 0.1
2014-Jul-29 22:28N 32°00' E 120°45'0 0.1
2014-Jul-29 21:33N 32°00' E 120°45'0 0.1
2014-Jul-29 20:27N 32°00' E 120°44'0 0.0
2014-Jul-29 19:30N 32°00' E 120°44'0 0.1
2014-Jul-29 18:33N 32°00' E 120°45'0 0.1
2014-Jul-29 17:33N 32°00' E 120°45'0 0.1
2014-Jul-29 16:33N 32°00' E 120°45'0 0.0
2014-Jul-29 15:30N 32°00' E 120°45'0 0.0
2014-Jul-29 14:33N 32°00' E 120°45'0 0.0
2014-Jul-29 13:28N 32°00' E 120°45'0 0.0
2014-Jul-29 12:34N 32°00' E 120°45'0 0.0
2014-Jul-29 11:30N 32°00' E 120°45'0 0.0
2014-Jul-29 10:33N 32°00' E 120°45'0 0.1
2014-Jul-29 09:30N 32°00' E 120°45'0 0.1
2014-Jul-29 08:33N 32°00' E 120°45'0 0.1
2014-Jul-29 07:33N 32°00' E 120°45'0 0.1
2014-Jul-29 06:33N 32°00' E 120°45'0 0.1
2014-Jul-29 05:33N 32°00' E 120°45'0 0.0
2014-Jul-29 04:30N 32°00' E 120°45'0 0.0
2014-Jul-29 03:33N 32°00' E 120°45'0 0.1
2014-Jul-29 02:33N 32°00' E 120°45'1010.3
2014-Jul-29 01:33N 32°03' E 120°33'1010.0
2014-Jul-29 00:34N 32°01' E 120°22'0 0.0
2014-Jul-28 23:32N 32°01' E 120°22'0 0.0
2014-Jul-28 22:32N 32°01' E 120°22'0 0.0
2014-Jul-28 21:32N 32°01' E 120°22'0 0.0
2014-Jul-28 20:32N 32°01' E 120°22'0 0.0
2014-Jul-28 19:32N 32°01' E 120°22'0 0.0
2014-Jul-28 18:32N 32°01' E 120°22'0 0.0
2014-Jul-28 17:32N 32°01' E 120°22'0 0.0
2014-Jul-28 16:32N 32°01' E 120°22'0 0.0
2014-Jul-28 15:32N 32°01' E 120°22'0 0.0
2014-Jul-28 14:32N 32°01' E 120°22'0 0.0
2014-Jul-28 13:32N 32°01' E 120°22'0 0.0
2014-Jul-28 12:32N 32°01' E 120°22'0 0.0
2014-Jul-28 11:32N 32°01' E 120°22'0 0.0
2014-Jul-28 10:32N 32°01' E 120°22'0 0.0
2014-Jul-28 09:29N 32°01' E 120°22'0 0.0
2014-Jul-28 08:32N 32°01' E 120°22'0 0.0
2014-Jul-28 07:32N 32°01' E 120°22'0 0.0
2014-Jul-28 06:32N 32°01' E 120°22'0 0.0
2014-Jul-28 05:32N 32°01' E 120°22'0 0.0
2014-Jul-28 04:32N 32°01' E 120°22'0 0.0
2014-Jul-28 03:32N 32°01' E 120°22'0 0.0
2014-Jul-28 02:26N 32°01' E 120°22'0 0.0
2014-Jul-28 01:32N 32°01' E 120°22'0 0.0
2014-Jul-28 00:32N 32°01' E 120°22'0 0.0
2014-Jul-27 23:32N 32°01' E 120°22'0 0.0
2014-Jul-27 22:32N 32°01' E 120°22'0 0.0
2014-Jul-27 21:32N 32°01' E 120°22'0 0.0
2014-Jul-27 20:32N 32°01' E 120°22'0 0.0
2014-Jul-27 19:32N 32°01' E 120°22'0 0.0
2014-Jul-27 18:32N 32°01' E 120°22'0 0.0
2014-Jul-27 17:32N 32°01' E 120°22'0 0.0
2014-Jul-27 16:32N 32°01' E 120°22'0 0.0
2014-Jul-27 15:32N 32°01' E 120°22'0 0.0
2014-Jul-27 14:32N 32°01' E 120°22'0 0.0
2014-Jul-27 13:32N 32°01' E 120°22'0 0.0
2014-Jul-27 12:32N 32°01' E 120°22'0 0.0
2014-Jul-27 11:32N 32°01' E 120°22'0 0.0
2014-Jul-27 10:32N 32°01' E 120°22'0 0.0
2014-Jul-27 09:32N 32°01' E 120°22'0 0.0
2014-Jul-27 08:32N 32°01' E 120°22'0 0.0
2014-Jul-27 07:32N 32°01' E 120°22'0 0.0
2014-Jul-27 06:32N 32°01' E 120°22'0 0.0
2014-Jul-27 05:32N 32°01' E 120°22'0 0.0
2014-Jul-27 04:32N 32°01' E 120°22'0 0.0
2014-Jul-27 03:32N 32°01' E 120°22'0 0.0
2014-Jul-27 02:29N 32°01' E 120°22'0 0.0
2014-Jul-27 01:32N 32°01' E 120°22'0 0.0
2014-Jul-27 00:32N 32°01' E 120°22'0 0.0
2014-Jul-26 23:32N 32°01' E 120°22'0 0.0
2014-Jul-26 22:32N 32°01' E 120°22'0 0.0
2014-Jul-26 21:32N 32°01' E 120°22'0 0.0
2014-Jul-26 20:32N 32°01' E 120°22'0 0.0
2014-Jul-26 19:32N 32°01' E 120°22'0 0.0
2014-Jul-26 18:32N 32°01' E 120°22'0 0.0
2014-Jul-26 17:32N 32°01' E 120°22'0 0.0
2014-Jul-26 16:32N 32°01' E 120°22'0 0.0
2014-Jul-26 15:32N 32°01' E 120°22'0 0.0
2014-Jul-26 14:32N 32°01' E 120°22'0 0.0
2014-Jul-26 13:32N 32°01' E 120°22'0 0.0
2014-Jul-26 12:29N 32°01' E 120°22'0 0.0
2014-Jul-26 11:32N 32°01' E 120°22'0 0.0
2014-Jul-26 10:32N 32°01' E 120°22'0 0.0
2014-Jul-26 09:32N 32°01' E 120°22'0 0.1
2014-Jul-26 08:32N 32°01' E 120°22'0 0.0
2014-Jul-26 07:26N 32°01' E 120°22'0 0.0
2014-Jul-26 06:20N 32°01' E 120°22'0 0.0
2014-Jul-26 05:32N 32°01' E 120°22'0 0.0
2014-Jul-26 04:32N 32°01' E 120°22'0 0.0
2014-Jul-26 03:32N 32°01' E 120°22'0 0.1
2014-Jul-26 02:32N 32°01' E 120°22'0 0.1
2014-Jul-26 01:32N 32°01' E 120°22'0 0.0
2014-Jul-26 00:32N 32°01' E 120°22'0 0.0
2014-Jul-25 23:32N 32°01' E 120°22'0 0.0
2014-Jul-25 22:32N 32°01' E 120°22'0 0.0
2014-Jul-25 21:32N 32°01' E 120°22'0 0.0
2014-Jul-25 20:32N 32°01' E 120°22'0 0.0
2014-Jul-25 19:32N 32°01' E 120°22'0 0.0
2014-Jul-25 18:32N 32°01' E 120°22'0 0.0
2014-Jul-25 17:32N 32°01' E 120°22'0 0.0
2014-Jul-25 16:32N 32°01' E 120°22'0 0.0
2014-Jul-25 15:26N 32°01' E 120°22'0 0.1
2014-Jul-25 14:32N 32°01' E 120°22'0 0.1
2014-Jul-25 13:32N 32°01' E 120°22'0 0.0
2014-Jul-25 12:32N 32°01' E 120°22'0 0.0
2014-Jul-25 11:32N 32°01' E 120°22'0 0.0
2014-Jul-25 10:32N 32°01' E 120°22'0 0.0
2014-Jul-25 09:32N 32°01' E 120°22'0 0.0
2014-Jul-25 08:32N 32°01' E 120°22'0 0.0
2014-Jul-25 07:32N 32°01' E 120°22'0 0.0
2014-Jul-25 06:32N 32°01' E 120°22'0 0.0
2014-Jul-25 05:32N 32°01' E 120°22'0 0.0
2014-Jul-25 04:32N 32°01' E 120°22'0 0.0
2014-Jul-25 03:32N 32°01' E 120°22'0 0.1
2014-Jul-25 02:32N 32°01' E 120°22'0 0.1
2014-Jul-25 01:32N 32°01' E 120°22'0 0.0
2014-Jul-25 00:32N 32°01' E 120°22'0 0.0
2014-Jul-24 23:32N 32°01' E 120°22'0 0.0
2014-Jul-24 22:32N 32°01' E 120°22'0 0.0
2014-Jul-24 21:32N 32°01' E 120°22'0 0.0
2014-Jul-24 20:32N 32°01' E 120°22'0 0.0
2014-Jul-24 19:32N 32°01' E 120°22'0 0.0
2014-Jul-24 18:32N 32°01' E 120°22'0 0.0
2014-Jul-24 17:32N 32°01' E 120°22'0 0.0
2014-Jul-24 16:32N 32°01' E 120°22'0 0.0
2014-Jul-24 15:32N 32°01' E 120°22'0 0.0
2014-Jul-24 14:32N 32°01' E 120°22'0 0.0
2014-Jul-24 13:32N 32°01' E 120°22'0 0.0
2014-Jul-24 12:32N 32°01' E 120°22'0 0.0
2014-Jul-24 11:32N 32°01' E 120°22'0 0.0
2014-Jul-24 10:32N 32°01' E 120°22'0 0.0
2014-Jul-24 09:26N 32°01' E 120°22'0 0.0
2014-Jul-24 08:32N 32°01' E 120°22'0 0.0
2014-Jul-24 07:32N 32°01' E 120°22'0 0.0
2014-Jul-24 06:32N 32°01' E 120°22'0 0.0
2014-Jul-24 05:29N 32°01' E 120°22'0 0.0
2014-Jul-24 04:32N 32°01' E 120°22'0 0.1
2014-Jul-24 03:32N 32°01' E 120°22'0 0.0
2014-Jul-24 02:32N 32°01' E 120°22'0 0.0
2014-Jul-24 01:32N 32°01' E 120°22'0 0.1
2014-Jul-24 00:32N 32°01' E 120°22'0 0.0
2014-Jul-23 23:32N 32°01' E 120°22'0 0.1
2014-Jul-23 22:32N 32°01' E 120°22'0 0.0
2014-Jul-23 21:32N 32°01' E 120°22'0 0.1
2014-Jul-23 20:32N 32°01' E 120°22'0 0.0
2014-Jul-23 19:32N 32°01' E 120°22'0 0.1
2014-Jul-23 18:32N 32°01' E 120°22'0 0.1
2014-Jul-23 17:32N 32°01' E 120°22'0 0.1
2014-Jul-23 16:32N 32°01' E 120°22'0 0.1
2014-Jul-23 15:32N 32°01' E 120°22'0 0.0
2014-Jul-23 14:32N 32°01' E 120°22'0 0.0
2014-Jul-23 13:32N 32°01' E 120°22'0 0.0
2014-Jul-23 12:29N 32°01' E 120°22'0 0.0
2014-Jul-23 11:32N 32°01' E 120°22'0 0.0
2014-Jul-23 10:32N 32°01' E 120°22'0 0.0
2014-Jul-23 09:32N 32°01' E 120°22'0 0.0
2014-Jul-23 08:32N 32°01' E 120°22'0 0.0
2014-Jul-23 07:32N 32°01' E 120°22'0 0.0
2014-Jul-23 06:32N 32°01' E 120°22'0 0.0
2014-Jul-23 05:32N 32°01' E 120°22'0 0.0
2014-Jul-23 04:32N 32°01' E 120°22'0 0.0
2014-Jul-23 03:29N 32°01' E 120°22'0 0.1
2014-Jul-23 02:32N 32°01' E 120°22'0 0.0
2014-Jul-23 01:32N 32°01' E 120°22'0 0.1
2014-Jul-23 00:32N 32°01' E 120°22'0 0.0
2014-Jul-22 23:32N 32°01' E 120°22'0 0.0
2014-Jul-22 22:32N 32°01' E 120°22'0 0.0
2014-Jul-22 21:32N 32°01' E 120°22'0 0.0
2014-Jul-22 20:32N 32°01' E 120°22'0 0.0
2014-Jul-22 19:32N 32°01' E 120°22'0 0.0
2014-Jul-22 18:32N 32°01' E 120°22'0 0.1
2014-Jul-22 17:32N 32°01' E 120°22'0 0.1
2014-Jul-22 16:32N 32°01' E 120°22'0 0.0
2014-Jul-22 15:32N 32°01' E 120°22'0 0.0
2014-Jul-22 14:32N 32°01' E 120°22'0 0.0
2014-Jul-22 13:32N 32°01' E 120°22'0 0.0
2014-Jul-22 12:32N 32°01' E 120°22'  

Dump ship's entire track history